Time;durP1;ratioP1;P1;durP2;ratioP2;P2;SDS_P1;SDS_P2;PMS_P1;PMS_P2;Temp;Humidity;BMP_temperature;BMP_pressure;BME280_temperature;BME280_humidity;BME280_pressure;Samples;Min_cycle;Max_cycle;Signal;HPM_P1;HPM_P2
2024/01/27 00:01:22;;;;;;;2.00;0.68;;;7.90;81.90;;;;;;5091590;28;20131;-68
2024/01/27 00:03:48;;;;;;;2.70;0.75;;;7.90;82.20;;;;;;5093070;28;20044;-71
2024/01/27 00:06:13;;;;;;;3.15;0.60;;;7.90;82.10;;;;;;5093405;28;20024;-69
2024/01/27 00:08:39;;;;;;;2.28;0.50;;;7.90;82.00;;;;;;5092668;28;20453;-69
2024/01/27 00:11:05;;;;;;;3.15;0.63;;;7.80;81.90;;;;;;5093304;28;20032;-70
2024/01/27 00:13:30;;;;;;;1.80;0.60;;;7.80;82.10;;;;;;5093202;28;20103;-70
2024/01/27 00:15:56;;;;;;;1.33;0.57;;;7.90;82.10;;;;;;5092658;28;20423;-69
2024/01/27 00:18:22;;;;;;;1.10;0.60;;;7.80;81.90;;;;;;5093011;28;20032;-70
2024/01/27 00:20:47;;;;;;;1.05;0.70;;;7.80;81.90;;;;;;5092588;28;20040;-69
2024/01/27 00:23:13;;;;;;;0.50;0.45;;;7.80;81.50;;;;;;5092955;28;20111;-70
2024/01/27 00:25:38;;;;;;;1.00;0.70;;;7.80;81.20;;;;;;5092707;28;20076;-73
2024/01/27 00:28:04;;;;;;;2.05;0.63;;;7.80;81.10;;;;;;5092853;28;20385;-69
2024/01/27 00:30:30;;;;;;;2.38;0.63;;;7.80;81.20;;;;;;5093057;28;20035;-70
2024/01/27 00:32:55;;;;;;;0.55;0.43;;;7.80;80.30;;;;;;5092642;28;20031;-70
2024/01/27 00:35:21;;;;;;;1.40;0.47;;;7.80;80.00;;;;;;5092637;28;20153;-69
2024/01/27 00:37:47;;;;;;;1.42;0.50;;;7.80;79.60;;;;;;5091893;28;20385;-69
2024/01/27 00:40:14;;;;;;;0.68;0.40;;;7.80;79.30;;;;;;5092365;28;20384;-70
2024/01/27 00:42:40;;;;;;;1.27;0.50;;;7.90;78.60;;;;;;5092635;28;20497;-72
2024/01/27 00:45:06;;;;;;;0.68;0.40;;;7.80;78.90;;;;;;5092632;28;20047;-70
2024/01/27 00:47:32;;;;;;;1.45;0.82;;;7.90;78.80;;;;;;5092394;28;20028;-71
2024/01/27 00:49:58;;;;;;;1.42;0.68;;;7.90;78.10;;;;;;5091888;28;20082;-70
2024/01/27 00:52:23;;;;;;;0.60;0.50;;;7.90;77.40;;;;;;5091103;28;20032;-69
2024/01/27 00:54:49;;;;;;;1.10;0.43;;;7.90;77.90;;;;;;5091746;28;20024;-70
2024/01/27 00:57:14;;;;;;;0.82;0.50;;;7.90;77.80;;;;;;5090846;28;20039;-70
2024/01/27 00:59:40;;;;;;;0.50;0.43;;;7.90;77.60;;;;;;5092019;28;20024;-69
2024/01/27 01:02:07;;;;;;;3.15;0.63;;;7.90;77.50;;;;;;5108691;28;20503;-70
2024/01/27 01:04:32;;;;;;;0.60;0.43;;;7.90;77.10;;;;;;5112367;28;20495;-70
2024/01/27 01:06:58;;;;;;;0.38;0.28;;;7.90;77.60;;;;;;5112336;28;20027;-70
2024/01/27 01:09:24;;;;;;;1.13;0.65;;;7.80;78.00;;;;;;5105317;28;20384;-69
2024/01/27 01:11:50;;;;;;;1.30;0.60;;;7.80;78.80;;;;;;5091541;28;20023;-70
2024/01/27 01:14:16;;;;;;;1.17;0.50;;;7.80;79.60;;;;;;5092483;28;20024;-69
2024/01/27 01:16:41;;;;;;;0.55;0.50;;;7.80;80.80;;;;;;5092272;28;20024;-69
2024/01/27 01:19:07;;;;;;;1.67;0.80;;;7.70;80.70;;;;;;5091586;28;20520;-69
2024/01/27 01:21:33;;;;;;;2.03;0.77;;;7.70;80.50;;;;;;5092250;28;20107;-70
2024/01/27 01:23:58;;;;;;;3.10;1.88;;;7.70;79.30;;;;;;5091324;28;20059;-68
2024/01/27 01:26:24;;;;;;;1.20;0.63;;;7.70;79.90;;;;;;5091802;28;20038;-69
2024/01/27 01:28:51;;;;;;;1.40;0.80;;;7.70;80.30;;;;;;5091535;28;20035;-69
2024/01/27 01:31:16;;;;;;;1.42;0.50;;;7.70;80.60;;;;;;5091651;28;20034;-68
2024/01/27 01:33:43;;;;;;;3.55;0.95;;;7.70;80.40;;;;;;5092093;28;20103;-69
2024/01/27 01:36:08;;;;;;;4.05;0.77;;;7.70;80.60;;;;;;5091740;28;20028;-69
2024/01/27 01:38:34;;;;;;;1.67;0.60;;;7.60;80.90;;;;;;5091026;28;20044;-69
2024/01/27 01:41:00;;;;;;;1.45;0.70;;;7.60;80.80;;;;;;5091353;28;20028;-69
2024/01/27 01:43:25;;;;;;;1.50;0.70;;;7.60;80.50;;;;;;5091647;28;20378;-69
2024/01/27 01:45:53;;;;;;;2.45;0.70;;;7.60;80.20;;;;;;5091348;28;20432;-69
2024/01/27 01:48:19;;;;;;;1.45;0.90;;;7.60;80.70;;;;;;5091739;28;20078;-69
2024/01/27 01:50:46;;;;;;;0.88;0.50;;;7.60;81.60;;;;;;5091107;28;20028;-71
2024/01/27 01:53:12;;;;;;;1.52;0.70;;;7.60;82.70;;;;;;5090365;28;20476;-69
2024/01/27 01:55:39;;;;;;;1.55;0.60;;;7.50;83.40;;;;;;5091357;28;20426;-68
2024/01/27 01:58:05;;;;;;;2.60;0.90;;;7.50;84.10;;;;;;5091168;28;20032;-69
2024/01/27 02:00:31;;;;;;;3.75;0.90;;;7.50;84.50;;;;;;5092463;28;20337;-69
2024/01/27 02:02:57;;;;;;;1.98;0.77;;;7.40;84.80;;;;;;5095402;28;20044;-68
2024/01/27 02:05:23;;;;;;;3.75;1.02;;;7.40;85.30;;;;;;5095408;28;20032;-68
2024/01/27 02:07:48;;;;;;;3.35;0.60;;;7.40;85.30;;;;;;5095211;28;20515;-70
2024/01/27 02:10:17;;;;;;;1.25;0.60;;;7.40;85.50;;;;;;5095530;28;20070;-69
2024/01/27 02:12:45;;;;;;;3.60;0.82;;;7.30;85.40;;;;;;5095419;28;20028;-69
2024/01/27 02:15:15;;;;;;;3.28;0.80;;;7.30;85.60;;;;;;5094942;28;20035;-69
2024/01/27 02:17:41;;;;;;;4.43;0.90;;;7.30;86.00;;;;;;5095017;28;20064;-69
2024/01/27 02:20:07;;;;;;;0.70;0.63;;;7.30;85.40;;;;;;5094963;28;20107;-70
2024/01/27 02:22:34;;;;;;;1.92;0.90;;;7.20;85.90;;;;;;5095385;28;20032;-70
2024/01/27 02:25:00;;;;;;;1.67;0.77;;;7.20;86.50;;;;;;5094802;28;20363;-69
2024/01/27 02:27:26;;;;;;;2.65;1.10;;;7.20;87.20;;;;;;5077176;28;20450;-69
2024/01/27 02:29:51;;;;;;;3.15;0.93;;;7.20;87.90;;;;;;5094823;28;20100;-69
2024/01/27 02:32:17;;;;;;;1.73;0.70;;;7.20;88.40;;;;;;5095063;28;20065;-69
2024/01/27 02:34:42;;;;;;;3.40;1.15;;;7.20;89.00;;;;;;5094810;28;20035;-69
2024/01/27 02:37:09;;;;;;;3.58;1.10;;;7.20;89.40;;;;;;5094543;28;20036;-69
2024/01/27 02:39:34;;;;;;;1.77;0.77;;;7.10;89.40;;;;;;5095035;28;20536;-69
2024/01/27 02:42:00;;;;;;;2.45;0.95;;;7.10;89.20;;;;;;5094734;28;20127;-69
2024/01/27 02:44:26;;;;;;;2.17;0.88;;;7.10;89.10;;;;;;5095174;28;20021;-69
2024/01/27 02:46:51;;;;;;;3.47;1.05;;;7.10;89.00;;;;;;5094689;28;20058;-69
2024/01/27 02:49:17;;;;;;;2.92;0.80;;;7.10;88.60;;;;;;5094782;28;20526;-69
2024/01/27 02:51:43;;;;;;;3.25;1.08;;;7.10;88.10;;;;;;5094603;28;20024;-69
2024/01/27 02:54:09;;;;;;;2.90;0.70;;;7.10;87.50;;;;;;5094238;28;20646;-70
2024/01/27 02:56:35;;;;;;;3.75;1.02;;;7.10;87.10;;;;;;5106539;28;20116;-69
2024/01/27 02:59:01;;;;;;;3.67;0.73;;;7.10;86.30;;;;;;5114798;28;20028;-70
2024/01/27 03:01:26;;;;;;;1.17;0.90;;;7.00;86.30;;;;;;5115096;28;20155;-68
2024/01/27 03:03:52;;;;;;;3.60;0.88;;;7.00;85.80;;;;;;5114730;28;20521;-70
2024/01/27 03:06:17;;;;;;;2.13;0.82;;;7.00;86.00;;;;;;5115110;28;20024;-70
2024/01/27 03:08:43;;;;;;;2.97;1.25;;;7.00;86.00;;;;;;5114712;28;20028;-69
2024/01/27 03:11:09;;;;;;;2.88;0.88;;;7.00;86.30;;;;;;5114767;28;20024;-68
2024/01/27 03:13:34;;;;;;;2.78;1.13;;;7.00;86.90;;;;;;5098624;28;20089;-70
2024/01/27 03:16:00;;;;;;;1.83;0.80;;;7.00;86.80;;;;;;5094069;28;20099;-69
2024/01/27 03:18:26;;;;;;;2.42;1.30;;;6.90;87.20;;;;;;5094279;28;20116;-70
2024/01/27 03:20:51;;;;;;;6.78;1.00;;;6.90;87.60;;;;;;5093934;28;20417;-72
2024/01/27 03:23:17;;;;;;;3.13;1.02;;;6.90;87.70;;;;;;5094290;28;20074;-69
2024/01/27 03:25:43;;;;;;;1.63;1.00;;;6.90;87.90;;;;;;5094044;28;20476;-69
2024/01/27 03:28:08;;;;;;;3.13;1.05;;;6.90;88.00;;;;;;5093484;28;20024;-71
2024/01/27 03:30:34;;;;;;;3.67;1.17;;;6.80;87.90;;;;;;5093836;28;20023;-69
2024/01/27 03:32:59;;;;;;;4.43;1.20;;;6.80;88.30;;;;;;5092461;28;20028;-69
2024/01/27 03:35:25;;;;;;;2.00;1.08;;;6.80;88.50;;;;;;5094148;28;20028;-69
2024/01/27 03:37:51;;;;;;;3.97;1.45;;;6.80;88.70;;;;;;5092435;28;20036;-69
2024/01/27 03:40:17;;;;;;;5.00;1.38;;;6.70;89.10;;;;;;5093519;28;20094;-71
2024/01/27 03:42:43;;;;;;;2.80;1.10;;;6.70;89.30;;;;;;5093914;28;20060;-70
2024/01/27 03:45:09;;;;;;;3.95;1.13;;;6.70;89.50;;;;;;5093178;28;20411;-69
2024/01/27 03:47:34;;;;;;;2.10;1.30;;;6.70;89.80;;;;;;5094057;28;20046;-69
2024/01/27 03:50:00;;;;;;;5.53;1.40;;;6.70;90.20;;;;;;5093006;28;20491;-68
2024/01/27 03:52:26;;;;;;;3.40;1.25;;;6.70;90.40;;;;;;5093811;28;20070;-69
2024/01/27 03:54:51;;;;;;;4.95;1.40;;;6.60;90.50;;;;;;5092879;28;20094;-69
2024/01/27 03:57:17;;;;;;;4.57;1.65;;;6.60;90.70;;;;;;5091526;28;20040;-69
2024/01/27 03:59:43;;;;;;;3.85;1.45;;;6.60;90.90;;;;;;5093683;28;20027;-69
2024/01/27 04:02:08;;;;;;;4.38;1.60;;;6.60;91.10;;;;;;5092657;28;20048;-70
2024/01/27 04:04:34;;;;;;;8.05;1.65;;;6.60;91.20;;;;;;5093501;28;20024;-69
2024/01/27 04:07:01;;;;;;;6.90;1.73;;;6.50;91.30;;;;;;5091528;28;20103;-69
2024/01/27 04:09:27;;;;;;;4.00;1.35;;;6.50;91.30;;;;;;5092199;28;20035;-70
2024/01/27 04:11:53;;;;;;;5.68;1.35;;;6.50;91.30;;;;;;5093340;28;20020;-70
2024/01/27 04:14:18;;;;;;;3.00;1.42;;;6.50;91.10;;;;;;5092998;28;20028;-69
2024/01/27 04:16:44;;;;;;;5.07;1.40;;;6.40;90.90;;;;;;5093507;28;20149;-70
2024/01/27 04:19:09;;;;;;;2.92;1.05;;;6.40;90.80;;;;;;5092514;28;20352;-69
2024/01/27 04:21:35;;;;;;;2.05;1.10;;;6.40;90.90;;;;;;5092904;28;20024;-70
2024/01/27 04:24:00;;;;;;;3.15;1.20;;;6.40;90.90;;;;;;5092767;28;20111;-70
2024/01/27 04:26:26;;;;;;;4.40;1.25;;;6.40;90.90;;;;;;5093237;28;20031;-70
2024/01/27 04:28:52;;;;;;;3.65;1.42;;;6.40;90.80;;;;;;5093307;28;20318;-70
2024/01/27 04:31:17;;;;;;;8.57;1.40;;;6.40;90.80;;;;;;5092723;28;20358;-70
2024/01/27 04:33:43;;;;;;;4.82;1.40;;;6.30;90.90;;;;;;5092885;28;20024;-69
2024/01/27 04:36:10;;;;;;;2.88;1.35;;;6.30;91.00;;;;;;5092571;28;20042;-71
2024/01/27 04:38:35;;;;;;;4.45;1.05;;;6.30;91.10;;;;;;5092846;28;20060;-69
2024/01/27 04:41:02;;;;;;;3.50;1.23;;;6.30;91.10;;;;;;5092463;28;20031;-69
2024/01/27 04:43:28;;;;;;;2.45;1.30;;;6.30;91.00;;;;;;5092922;28;20032;-68
2024/01/27 04:45:54;;;;;;;6.47;1.40;;;6.30;91.00;;;;;;5092707;28;20089;-69
2024/01/27 04:48:19;;;;;;;4.13;1.55;;;6.30;91.10;;;;;;5092297;28;20162;-69
2024/01/27 04:50:46;;;;;;;3.22;1.38;;;6.20;91.10;;;;;;5092419;28;20028;-69
2024/01/27 04:53:12;;;;;;;4.13;1.40;;;6.20;91.10;;;;;;5091814;28;20453;-69
2024/01/27 04:55:37;;;;;;;2.90;1.38;;;6.20;91.00;;;;;;5095922;28;20030;-69
2024/01/27 04:58:04;;;;;;;3.42;1.48;;;6.20;91.10;;;;;;5112285;28;20031;-69
2024/01/27 05:00:30;;;;;;;3.75;1.30;;;6.20;91.10;;;;;;5112943;28;20094;-70
2024/01/27 05:02:57;;;;;;;5.88;1.70;;;6.20;91.10;;;;;;5113002;28;20159;-70
2024/01/27 05:05:23;;;;;;;5.15;1.58;;;6.20;91.00;;;;;;5112406;28;20040;-69
2024/01/27 05:07:49;;;;;;;3.53;1.17;;;6.10;90.90;;;;;;5112838;28;20036;-70
2024/01/27 05:10:17;;;;;;;2.05;1.17;;;6.10;90.80;;;;;;5112236;28;20476;-70
2024/01/27 05:12:43;;;;;;;5.22;1.52;;;6.10;90.80;;;;;;5112409;28;20028;-70
2024/01/27 05:15:10;;;;;;;2.00;1.30;;;6.10;90.80;;;;;;5112195;28;20027;-70
2024/01/27 05:17:36;;;;;;;8.43;1.58;;;6.10;91.00;;;;;;5112487;28;20529;-69
2024/01/27 05:20:04;;;;;;;4.40;1.45;;;6.10;91.10;;;;;;5112321;28;20024;-71
2024/01/27 05:22:29;;;;;;;4.63;1.50;;;6.10;91.20;;;;;;5104194;28;20085;-69
2024/01/27 05:24:55;;;;;;;3.80;1.48;;;6.10;91.30;;;;;;5092007;28;20469;-70
2024/01/27 05:27:21;;;;;;;2.85;1.48;;;6.10;91.30;;;;;;5090475;28;20358;-69
2024/01/27 05:29:46;;;;;;;4.05;1.50;;;6.00;91.30;;;;;;5092145;28;20047;-70
2024/01/27 05:32:12;;;;;;;3.50;1.33;;;6.00;91.40;;;;;;5091369;28;20031;-70
2024/01/27 05:34:38;;;;;;;5.13;1.52;;;6.00;91.50;;;;;;5091488;28;20024;-69
2024/01/27 05:37:03;;;;;;;7.75;1.92;;;6.00;91.30;;;;;;5091156;28;20032;-69
2024/01/27 05:39:29;;;;;;;3.78;1.38;;;6.00;91.10;;;;;;5091820;28;20032;-69
2024/01/27 05:41:55;;;;;;;4.93;1.50;;;6.00;90.90;;;;;;5092244;28;20477;-70
2024/01/27 05:44:20;;;;;;;2.80;1.33;;;6.00;90.70;;;;;;5091773;28;20408;-70
2024/01/27 05:46:46;;;;;;;4.72;1.30;;;6.00;90.70;;;;;;5091811;28;20469;-69
2024/01/27 05:49:12;;;;;;;3.35;1.40;;;6.00;90.60;;;;;;5091594;28;20107;-69
2024/01/27 05:51:38;;;;;;;4.03;1.30;;;6.00;90.90;;;;;;5091777;28;20635;-70
2024/01/27 05:54:04;;;;;;;4.65;1.60;;;5.90;90.50;;;;;;5091909;28;20026;-69
2024/01/27 05:56:29;;;;;;;3.13;1.30;;;6.00;90.00;;;;;;5091657;28;20142;-69
2024/01/27 05:58:55;;;;;;;6.72;1.80;;;6.00;89.50;;;;;;5091378;28;20113;-69
2024/01/27 06:01:21;;;;;;;6.13;2.03;;;6.00;89.30;;;;;;5091379;28;20459;-69
2024/01/27 06:03:47;;;;;;;5.85;1.40;;;6.00;89.50;;;;;;5090576;28;20097;-70
2024/01/27 06:06:12;;;;;;;4.68;1.42;;;6.00;88.70;;;;;;5091454;28;20028;-70
2024/01/27 06:08:38;;;;;;;2.67;1.15;;;6.00;88.70;;;;;;5091749;28;20032;-70
2024/01/27 06:11:03;;;;;;;3.00;1.42;;;6.10;88.80;;;;;;5091765;28;20031;-68
2024/01/27 06:13:29;;;;;;;4.85;1.48;;;6.00;89.10;;;;;;5091131;28;20103;-70
2024/01/27 06:15:55;;;;;;;5.75;1.67;;;6.00;89.40;;;;;;5091499;28;20080;-70
2024/01/27 06:18:21;;;;;;;5.03;1.23;;;6.00;89.50;;;;;;5091195;28;20082;-69
2024/01/27 06:20:47;;;;;;;2.60;1.38;;;6.00;89.60;;;;;;5091624;28;20025;-68
2024/01/27 06:23:13;;;;;;;4.32;1.80;;;6.10;89.40;;;;;;5091229;28;20027;-70
2024/01/27 06:25:38;;;;;;;4.82;1.50;;;6.10;89.40;;;;;;5091658;28;20062;-69
2024/01/27 06:28:04;;;;;;;2.75;1.50;;;6.00;89.20;;;;;;5091541;28;20076;-69
2024/01/27 06:30:29;;;;;;;3.53;1.50;;;6.10;89.30;;;;;;5090920;28;20387;-69
2024/01/27 06:32:55;;;;;;;4.55;1.70;;;6.10;89.10;;;;;;5090229;28;20094;-70
2024/01/27 06:35:21;;;;;;;5.82;2.00;;;6.00;89.30;;;;;;5091115;28;20024;-69
2024/01/27 06:37:46;;;;;;;3.88;1.77;;;6.00;89.40;;;;;;5090692;28;20067;-69
2024/01/27 06:40:13;;;;;;;7.53;1.70;;;6.00;89.50;;;;;;5091102;28;20105;-70
2024/01/27 06:42:39;;;;;;;4.82;1.50;;;6.10;89.30;;;;;;5091341;28;20040;-70
2024/01/27 06:45:05;;;;;;;6.18;1.45;;;6.00;88.70;;;;;;5090106;28;20024;-69
2024/01/27 06:47:31;;;;;;;4.55;1.40;;;6.10;88.10;;;;;;5093246;28;20159;-69
2024/01/27 06:49:56;;;;;;;5.47;1.65;;;6.10;88.10;;;;;;5095417;28;20116;-70
2024/01/27 06:52:22;;;;;;;5.47;1.75;;;6.00;88.20;;;;;;5094019;28;20471;-69
2024/01/27 06:54:47;;;;;;;5.18;1.92;;;6.00;87.80;;;;;;5094401;28;20036;-70
2024/01/27 06:57:23;;;;;;;4.53;1.77;;;6.00;87.50;;;;;;5094183;28;20107;-69
2024/01/27 06:59:55;;;;;;;4.80;1.65;;;6.00;87.00;;;;;;5093306;28;20380;-70
2024/01/27 07:02:26;;;;;;;5.93;1.60;;;6.00;86.30;;;;;;5093459;28;20125;-69
2024/01/27 07:04:51;;;;;;;5.43;1.55;;;6.00;86.70;;;;;;5094600;28;20033;-70
2024/01/27 07:07:18;;;;;;;5.00;1.58;;;5.90;86.90;;;;;;5093775;28;20051;-69
2024/01/27 07:09:44;;;;;;;5.93;1.52;;;5.90;86.70;;;;;;5093059;28;20051;-69
2024/01/27 07:12:10;;;;;;;6.05;1.80;;;5.90;86.70;;;;;;5094234;28;20052;-72
2024/01/27 07:14:36;;;;;;;4.75;1.50;;;5.90;86.80;;;;;;5094024;28;20027;-71
2024/01/27 07:17:03;;;;;;;4.15;1.48;;;5.90;87.10;;;;;;5094298;28;20070;-73
2024/01/27 07:19:29;;;;;;;8.43;1.80;;;5.90;87.40;;;;;;5093976;28;20043;-72
2024/01/27 07:21:54;;;;;;;5.10;1.67;;;5.90;87.90;;;;;;5094253;28;20036;-72
2024/01/27 07:24:20;;;;;;;5.18;1.58;;;5.90;88.30;;;;;;5092865;28;20472;-73
2024/01/27 07:26:46;;;;;;;7.38;1.60;;;5.90;88.70;;;;;;5093408;28;20059;-73
2024/01/27 07:29:11;;;;;;;3.80;1.50;;;5.90;88.30;;;;;;5093129;28;20374;-71
2024/01/27 07:31:37;;;;;;;6.43;1.75;;;5.90;87.90;;;;;;5093806;28;20032;-73
2024/01/27 07:34:04;;;;;;;5.45;1.40;;;5.90;87.80;;;;;;5093766;28;20426;-73
2024/01/27 07:36:32;;;;;;;5.68;2.20;;;5.90;87.60;;;;;;5093378;28;20116;-73
2024/01/27 07:38:58;;;;;;;4.35;1.70;;;5.80;87.50;;;;;;5093303;28;20032;-71
2024/01/27 07:41:23;;;;;;;6.50;1.70;;;5.90;87.40;;;;;;5092757;28;20028;-72
2024/01/27 07:43:49;;;;;;;3.25;1.60;;;5.90;87.50;;;;;;5092486;28;20038;-71
2024/01/27 07:46:15;;;;;;;6.32;1.88;;;5.80;87.70;;;;;;5092317;28;20032;-71
2024/01/27 07:48:41;;;;;;;7.60;2.05;;;5.90;88.30;;;;;;5093454;28;20056;-74
2024/01/27 07:51:06;;;;;;;5.97;2.17;;;5.90;88.00;;;;;;5094052;28;20423;-69
2024/01/27 07:53:33;;;;;;;10.30;1.98;;;5.90;87.70;;;;;;5092668;28;20028;-71
2024/01/27 07:55:59;;;;;;;3.58;1.92;;;6.00;87.70;;;;;;5093108;28;20059;-71
2024/01/27 07:58:24;;;;;;;5.30;1.77;;;6.10;87.30;;;;;;5091676;28;20028;-71
2024/01/27 08:00:50;;;;;;;5.80;2.35;;;6.30;86.40;;;;;;5092887;28;20020;-72
2024/01/27 08:03:16;;;;;;;3.63;1.65;;;6.50;85.30;;;;;;5092645;28;20101;-71
2024/01/27 08:05:41;;;;;;;5.80;2.03;;;6.70;84.70;;;;;;5088850;28;20020;-72
2024/01/27 08:08:07;;;;;;;4.45;2.13;;;7.00;83.90;;;;;;5089773;28;20032;-71
2024/01/27 08:10:33;;;;;;;9.18;2.33;;;7.20;82.40;;;;;;5092819;28;20087;-71
2024/01/27 08:12:58;;;;;;;8.00;2.38;;;7.30;81.10;;;;;;5093272;28;20111;-71
2024/01/27 08:15:24;;;;;;;5.95;1.67;;;7.40;80.40;;;;;;5091344;28;20074;-72
2024/01/27 08:17:49;;;;;;;6.72;1.85;;;7.60;79.60;;;;;;5093007;28;20460;-71
2024/01/27 08:20:15;;;;;;;4.97;2.08;;;7.60;79.00;;;;;;5092535;28;20024;-72
2024/01/27 08:22:40;;;;;;;7.82;2.65;;;7.60;79.00;;;;;;5088503;28;20036;-71
2024/01/27 08:25:06;;;;;;;4.07;1.67;;;7.60;78.50;;;;;;5089253;28;20389;-72
2024/01/27 08:27:32;;;;;;;4.72;1.90;;;7.50;78.70;;;;;;5088162;28;20028;-71
2024/01/27 08:29:58;;;;;;;5.30;2.30;;;7.50;79.00;;;;;;5092272;28;20461;-72
2024/01/27 08:32:24;;;;;;;5.03;2.00;;;7.50;79.10;;;;;;5090481;28;20035;-71
2024/01/27 08:34:50;;;;;;;7.22;2.00;;;7.50;78.40;;;;;;5092335;28;20030;-71
2024/01/27 08:37:19;;;;;;;6.45;2.20;;;7.50;78.30;;;;;;5091270;28;20103;-72
2024/01/27 08:39:45;;;;;;;4.45;1.98;;;7.40;79.00;;;;;;5092457;28;20024;-71
2024/01/27 08:42:12;;;;;;;4.53;1.60;;;7.40;78.70;;;;;;5092214;28;20028;-71
2024/01/27 08:44:38;;;;;;;7.72;2.00;;;7.40;78.80;;;;;;5091773;28;20024;-71
2024/01/27 08:47:04;;;;;;;6.82;2.08;;;7.40;78.20;;;;;;5089091;28;20066;-72
2024/01/27 08:49:29;;;;;;;5.82;1.92;;;7.40;77.80;;;;;;5091893;28;20108;-71
2024/01/27 08:51:55;;;;;;;6.70;1.90;;;7.30;78.30;;;;;;5091431;28;20095;-71
2024/01/27 08:54:21;;;;;;;6.07;1.83;;;7.30;78.10;;;;;;5091305;28;20023;-71
2024/01/27 08:56:47;;;;;;;6.25;2.33;;;7.30;77.10;;;;;;5091953;28;20168;-72
2024/01/27 08:59:13;;;;;;;5.25;1.63;;;7.20;77.40;;;;;;5091445;28;20028;-72
2024/01/27 09:01:38;;;;;;;6.28;1.88;;;7.30;76.90;;;;;;5089593;28;20412;-73
2024/01/27 09:04:04;;;;;;;3.47;2.17;;;7.20;76.80;;;;;;5092031;28;20414;-71
2024/01/27 09:06:29;;;;;;;9.38;2.03;;;7.30;77.00;;;;;;5091387;28;20050;-71
2024/01/27 09:08:55;;;;;;;3.67;1.60;;;7.20;76.20;;;;;;5091449;28;20066;-71
2024/01/27 09:11:24;;;;;;;4.43;1.67;;;7.20;75.80;;;;;;5090193;28;20016;-73
2024/01/27 09:13:51;;;;;;;7.57;2.03;;;7.20;76.20;;;;;;5091884;28;20111;-71
2024/01/27 09:16:18;;;;;;;8.10;2.00;;;7.20;76.20;;;;;;5091428;28;20488;-73
2024/01/27 09:18:43;;;;;;;6.60;2.15;;;7.20;76.80;;;;;;5091672;28;20092;-73
2024/01/27 09:21:09;;;;;;;7.60;1.90;;;7.20;76.20;;;;;;5091056;28;20024;-72
2024/01/27 09:23:35;;;;;;;6.07;2.13;;;7.20;76.90;;;;;;5089707;28;20024;-74
2024/01/27 09:26:00;;;;;;;8.75;2.53;;;7.20;76.40;;;;;;5090992;28;20519;-74
2024/01/27 09:28:26;;;;;;;5.43;2.20;;;7.20;76.00;;;;;;5089418;28;20024;-73
2024/01/27 09:30:53;;;;;;;7.07;2.13;;;7.20;76.50;;;;;;5090736;28;20035;-72
2024/01/27 09:33:22;;;;;;;6.53;2.03;;;7.20;75.80;;;;;;5100000;28;20031;-73
2024/01/27 09:35:51;;;;;;;5.10;2.53;;;7.20;76.00;;;;;;5107129;28;20050;-68
2024/01/27 09:38:17;;;;;;;7.85;2.13;;;7.20;76.20;;;;;;5108589;28;20024;-70
2024/01/27 09:40:43;;;;;;;5.43;2.20;;;7.20;75.60;;;;;;5109303;28;20027;-72
2024/01/27 09:43:13;;;;;;;7.05;1.90;;;7.30;76.10;;;;;;5104877;28;20376;-69
2024/01/27 09:45:39;;;;;;;4.75;2.00;;;7.30;75.10;;;;;;5108815;28;20068;-71
2024/01/27 09:48:07;;;;;;;10.77;2.72;;;7.40;74.60;;;;;;5108767;28;20024;-70
2024/01/27 09:50:34;;;;;;;5.53;2.05;;;7.50;75.10;;;;;;5100536;28;20435;-70
2024/01/27 09:53:00;;;;;;;7.20;2.17;;;7.60;75.20;;;;;;5100635;28;20016;-70
2024/01/27 09:55:26;;;;;;;5.57;2.05;;;7.80;74.30;;;;;;5101367;28;20106;-70
2024/01/27 09:57:52;;;;;;;8.88;2.20;;;7.90;73.50;;;;;;5098381;28;20521;-69
2024/01/27 10:00:19;;;;;;;5.53;1.90;;;7.90;73.20;;;;;;5103531;28;20020;-69
2024/01/27 10:02:49;;;;;;;7.30;2.33;;;8.00;72.60;;;;;;5091641;28;20484;-71
2024/01/27 10:05:15;;;;;;;4.90;2.00;;;8.00;72.70;;;;;;5091828;28;20035;-70
2024/01/27 10:07:41;;;;;;;7.00;2.00;;;8.10;71.30;;;;;;5091029;28;20046;-72
2024/01/27 10:10:07;;;;;;;6.45;2.33;;;8.20;71.20;;;;;;5090843;28;20059;-70
2024/01/27 10:12:39;;;;;;;6.53;1.80;;;8.20;71.70;;;;;;5090895;28;20060;-70
2024/01/27 10:15:05;;;;;;;9.30;2.30;;;8.30;70.90;;;;;;5091284;28;20020;-73
2024/01/27 10:17:35;;;;;;;6.35;1.95;;;8.40;70.00;;;;;;5091093;28;20032;-70
2024/01/27 10:20:05;;;;;;;7.23;1.97;;;8.50;70.50;;;;;;5091558;28;20056;-70
2024/01/27 10:22:38;;;;;;;5.57;1.90;;;8.50;69.70;;;;;;5093205;28;20520;-68
2024/01/27 10:25:04;;;;;;;5.93;2.05;;;8.60;68.90;;;;;;5094438;28;20123;-69
2024/01/27 10:27:30;;;;;;;5.07;2.03;;;8.60;69.30;;;;;;5093678;28;20425;-69
2024/01/27 10:29:56;;;;;;;4.88;2.00;;;8.70;68.80;;;;;;5094216;28;20042;-69
2024/01/27 10:32:24;;;;;;;6.97;2.08;;;8.70;68.60;;;;;;5094300;28;20028;-71
2024/01/27 10:35:10;;;;;;;7.03;2.40;;;8.70;68.10;;;;;;5094683;28;20023;-70
2024/01/27 10:37:37;;;;;;;6.03;2.08;;;8.70;68.60;;;;;;5094265;28;20044;-69
2024/01/27 10:40:04;;;;;;;9.52;2.33;;;8.80;68.30;;;;;;5094894;28;20043;-68
2024/01/27 10:42:30;;;;;;;7.80;2.50;;;8.80;68.80;;;;;;5097584;28;20492;-72
2024/01/27 10:45:00;;;;;;;8.40;2.83;;;8.80;68.60;;;;;;5105359;28;20081;-71
2024/01/27 10:47:29;;;;;;;6.38;2.33;;;8.80;68.80;;;;;;5104786;28;20035;-72
2024/01/27 10:49:58;;;;;;;8.48;2.38;;;8.90;68.70;;;;;;5104958;28;20027;-69
2024/01/27 10:52:28;;;;;;;8.32;2.40;;;8.90;68.00;;;;;;5102220;28;20031;-71
2024/01/27 10:55:02;;;;;;;9.82;2.08;;;8.90;68.10;;;;;;5109487;28;20072;-70
2024/01/27 10:57:29;;;;;;;7.72;2.72;;;8.90;68.80;;;;;;5105755;28;20120;-69
2024/01/27 10:59:56;;;;;;;4.47;2.15;;;9.00;68.50;;;;;;5105663;28;20027;-70
2024/01/27 11:02:23;;;;;;;5.25;1.70;;;9.00;68.30;;;;;;5107080;28;20047;-70
2024/01/27 11:04:51;;;;;;;6.82;2.22;;;9.10;68.70;;;;;;5114001;28;20120;-73
2024/01/27 11:07:19;;;;;;;6.93;2.83;;;9.10;68.50;;;;;;5107974;28;20059;-72
2024/01/27 11:09:45;;;;;;;8.30;2.10;;;9.20;68.80;;;;;;5093322;28;20069;-74
2024/01/27 11:12:12;;;;;;;5.65;2.03;;;9.20;68.80;;;;;;5093491;28;20384;-74
2024/01/27 11:14:37;;;;;;;4.60;2.38;;;9.30;67.90;;;;;;5094016;28;20039;-73
2024/01/27 11:17:03;;;;;;;4.03;2.10;;;9.10;68.00;;;;;;5092791;28;20024;-71
2024/01/27 11:19:29;;;;;;;5.68;2.10;;;9.10;67.70;;;;;;5092771;28;20044;-72
2024/01/27 11:22:04;;;;;;;9.35;2.30;;;9.00;67.90;;;;;;5092448;28;20027;-70
2024/01/27 11:24:29;;;;;;;8.65;2.28;;;9.00;67.90;;;;;;5092968;28;20085;-69
2024/01/27 11:27:06;;;;;;;7.93;2.20;;;9.00;68.40;;;;;;5093894;28;20437;-71
2024/01/27 11:29:32;;;;;;;5.28;2.10;;;9.00;68.00;;;;;;5093022;28;20032;-69
2024/01/27 11:32:04;;;;;;;5.00;2.08;;;8.90;68.00;;;;;;5092375;28;20473;-70
2024/01/27 11:34:47;;;;;;;7.35;2.22;;;8.80;68.40;;;;;;5091471;28;20028;-71
2024/01/27 11:37:15;;;;;;;9.48;2.45;;;8.60;68.70;;;;;;5091705;28;20042;-71
2024/01/27 11:39:41;;;;;;;8.77;2.47;;;8.50;69.00;;;;;;5092469;28;20024;-73
2024/01/27 11:42:13;;;;;;;8.02;2.22;;;8.40;69.60;;;;;;5092897;28;20388;-71
2024/01/27 11:44:40;;;;;;;5.18;2.28;;;8.40;70.10;;;;;;5093190;28;20111;-70
2024/01/27 11:47:14;;;;;;;5.50;1.83;;;8.40;71.10;;;;;;5092947;28;20031;-70
2024/01/27 11:49:41;;;;;;;6.82;2.03;;;8.40;70.30;;;;;;5089763;28;20028;-71
2024/01/27 11:52:07;;;;;;;5.35;2.20;;;8.50;70.90;;;;;;5090325;28;20036;-71
2024/01/27 11:54:32;;;;;;;7.18;2.25;;;8.60;70.60;;;;;;5092485;28;20077;-73
2024/01/27 11:56:58;;;;;;;7.32;2.53;;;8.70;70.00;;;;;;5093311;28;20539;-71
2024/01/27 11:59:24;;;;;;;3.72;1.98;;;8.80;69.20;;;;;;5092915;28;20545;-71
2024/01/27 12:01:49;;;;;;;6.55;2.30;;;8.80;69.30;;;;;;5091435;28;20111;-71
2024/01/27 12:04:16;;;;;;;5.00;2.03;;;8.90;69.20;;;;;;5089730;28;20024;-72
2024/01/27 12:06:43;;;;;;;8.90;2.20;;;8.90;68.70;;;;;;5096049;28;20052;-71
2024/01/27 12:09:11;;;;;;;5.47;2.25;;;8.90;68.40;;;;;;5101929;28;20032;-71
2024/01/27 12:11:40;;;;;;;11.88;2.30;;;8.80;68.50;;;;;;5105175;28;20024;-71
2024/01/27 12:14:05;;;;;;;5.90;2.00;;;8.80;68.60;;;;;;5104394;28;20414;-71
2024/01/27 12:16:31;;;;;;;7.05;2.00;;;8.70;68.80;;;;;;5100636;28;20089;-71
2024/01/27 12:18:57;;;;;;;7.70;2.35;;;8.80;69.00;;;;;;5102281;28;20043;-71
2024/01/27 12:21:23;;;;;;;9.73;3.13;;;8.80;69.40;;;;;;5103542;28;20516;-71
2024/01/27 12:23:53;;;;;;;6.50;2.70;;;8.90;68.70;;;;;;5101716;28;20039;-71
2024/01/27 12:26:24;;;;;;;4.53;1.83;;;9.00;67.60;;;;;;5090660;28;20020;-70
2024/01/27 12:28:50;;;;;;;7.03;2.63;;;9.10;67.80;;;;;;5088509;28;20044;-71
2024/01/27 12:31:20;;;;;;;8.30;2.97;;;9.10;67.50;;;;;;5092511;28;20478;-71
2024/01/27 12:33:53;;;;;;;9.15;2.17;;;9.10;67.10;;;;;;5092118;28;20445;-70
2024/01/27 12:36:20;;;;;;;7.18;2.25;;;9.10;67.30;;;;;;5092405;28;20024;-70
2024/01/27 12:39:03;;;;;;;4.70;1.95;;;9.10;67.50;;;;;;5091750;28;20522;-72
2024/01/27 12:41:29;;;;;;;6.47;2.30;;;9.00;67.40;;;;;;5089672;28;20032;-70
2024/01/27 12:43:55;;;;;;;4.70;2.30;;;8.90;67.90;;;;;;5092179;28;20032;-68
2024/01/27 12:46:21;;;;;;;8.20;1.85;;;8.90;68.10;;;;;;5094933;28;20024;-66
2024/01/27 12:48:47;;;;;;;7.22;2.70;;;8.80;68.00;;;;;;5102100;28;20431;-67
2024/01/27 12:51:13;;;;;;;6.75;2.20;;;8.90;68.20;;;;;;5102279;28;20020;-67
2024/01/27 12:53:43;;;;;;;3.92;1.98;;;8.80;67.60;;;;;;5096772;28;20034;-67